createdAt,value
2019-05-23T00:00:04.925Z,99.99
2019-05-23T00:01:04.915Z,99.99
2019-05-23T00:02:04.907Z,99.99
2019-05-23T00:03:04.902Z,99.99
2019-05-23T00:04:04.885Z,99.99
2019-05-23T00:05:04.876Z,99.99
2019-05-23T00:06:04.870Z,99.99
2019-05-23T00:07:04.864Z,99.99
2019-05-23T00:08:04.848Z,99.99
2019-05-23T00:09:04.839Z,99.99
2019-05-23T00:10:04.826Z,99.99
2019-05-23T00:11:04.821Z,99.99
2019-05-23T00:12:04.808Z,99.99
2019-05-23T00:13:04.800Z,99.99
2019-05-23T00:14:04.790Z,99.99
2019-05-23T00:15:04.821Z,99.99
2019-05-23T00:16:04.772Z,99.99
2019-05-23T00:17:04.903Z,99.99
2019-05-23T00:18:04.756Z,99.99
2019-05-23T00:19:04.742Z,99.99
2019-05-23T00:20:04.735Z,99.99
2019-05-23T00:21:04.747Z,99.99
2019-05-23T00:22:04.710Z,99.99
2019-05-23T00:23:04.708Z,99.99
2019-05-23T00:24:04.693Z,99.99
2019-05-23T00:25:04.684Z,99.99
2019-05-23T00:26:04.671Z,99.99
2019-05-23T00:27:04.664Z,99.99
2019-05-23T00:28:04.659Z,99.99
2019-05-23T00:29:10.025Z,99.99
2019-05-23T00:30:04.632Z,99.99
2019-05-23T00:31:04.630Z,99.99
2019-05-23T00:32:04.614Z,99.99
2019-05-23T00:33:04.603Z,99.99
2019-05-23T00:34:04.592Z,99.99
2019-05-23T00:35:04.584Z,99.99
2019-05-23T00:36:04.573Z,99.99
2019-05-23T00:37:04.564Z,99.99
2019-05-23T00:38:04.554Z,99.99
2019-05-23T00:39:04.546Z,99.99
2019-05-23T00:40:04.536Z,99.99
2019-05-23T00:41:04.524Z,99.99
2019-05-23T00:42:04.518Z,99.99
2019-05-23T00:43:04.507Z,99.99
2019-05-23T00:44:04.494Z,99.99
2019-05-23T00:45:04.486Z,99.99
2019-05-23T00:46:04.476Z,99.99
2019-05-23T00:47:04.464Z,99.99
2019-05-23T00:48:04.501Z,99.99
2019-05-23T00:49:04.446Z,99.99
2019-05-23T00:50:04.434Z,99.99
2019-05-23T00:51:05.394Z,99.99
2019-05-23T00:52:04.414Z,99.99
2019-05-23T00:53:04.403Z,99.99
2019-05-23T00:54:04.404Z,99.99
2019-05-23T00:55:04.389Z,99.99
2019-05-23T00:56:04.377Z,99.99
2019-05-23T00:57:04.413Z,99.99
2019-05-23T00:58:04.373Z,99.99
2019-05-23T00:59:04.345Z,99.99
2019-05-23T01:00:04.336Z,99.99
2019-05-23T01:01:04.328Z,99.99
2019-05-23T01:02:04.320Z,99.99
2019-05-23T01:03:04.305Z,99.99
2019-05-23T01:04:04.299Z,99.99
2019-05-23T01:05:04.347Z,99.99
2019-05-23T01:06:04.277Z,99.99
2019-05-23T01:07:04.266Z,99.99
2019-05-23T01:08:04.254Z,99.99
2019-05-23T01:09:04.245Z,99.99
2019-05-23T01:10:04.237Z,99.99
2019-05-23T01:11:04.225Z,99.99
2019-05-23T01:12:04.217Z,99.99
2019-05-23T01:13:04.209Z,99.99
2019-05-23T01:14:04.261Z,99.99
2019-05-23T01:15:04.196Z,99.99
2019-05-23T01:16:04.176Z,99.99
2019-05-23T01:17:04.167Z,99.99
2019-05-23T01:18:04.157Z,99.99
2019-05-23T01:19:04.150Z,99.99
2019-05-23T01:20:04.136Z,99.99
2019-05-23T01:21:04.127Z,99.99
2019-05-23T01:22:04.116Z,99.99
2019-05-23T01:23:04.104Z,99.99
2019-05-23T01:24:04.103Z,99.99
2019-05-23T01:25:04.087Z,99.99
2019-05-23T01:26:04.077Z,99.99
2019-05-23T01:27:04.068Z,99.99
2019-05-23T01:28:04.064Z,99.99
2019-05-23T01:29:04.108Z,99.99
2019-05-23T01:30:04.047Z,99.99
2019-05-23T01:31:04.025Z,99.99
2019-05-23T01:32:04.020Z,99.99
2019-05-23T01:33:04.003Z,99.99
2019-05-23T01:34:03.995Z,99.99
2019-05-23T01:35:03.983Z,99.99
2019-05-23T01:36:03.971Z,99.99
2019-05-23T01:37:03.964Z,99.99
2019-05-23T01:38:04.327Z,99.99
2019-05-23T01:39:03.946Z,99.99
2019-05-23T01:40:03.932Z,99.99
2019-05-23T01:41:03.923Z,99.99
2019-05-23T01:42:03.917Z,99.99
2019-05-23T01:43:03.908Z,99.99
2019-05-23T01:44:03.893Z,99.99
2019-05-23T01:45:03.884Z,99.99
2019-05-23T01:46:03.873Z,99.99
2019-05-23T01:47:03.865Z,99.99
2019-05-23T01:48:03.863Z,99.99
2019-05-23T01:49:03.849Z,99.99
2019-05-23T01:50:03.834Z,99.99
2019-05-23T01:51:03.824Z,99.99
2019-05-23T01:52:03.812Z,99.99
2019-05-23T01:53:03.801Z,99.99
2019-05-23T01:54:03.792Z,99.99
2019-05-23T01:55:03.783Z,99.99
2019-05-23T01:56:03.783Z,99.99
2019-05-23T01:57:03.762Z,99.99
2019-05-23T01:58:03.753Z,99.99
2019-05-23T01:59:03.744Z,99.99
2019-05-23T02:00:09.974Z,99.99
2019-05-23T02:01:03.720Z,99.99
2019-05-23T02:02:03.716Z,99.99
2019-05-23T02:03:03.712Z,99.99
2019-05-23T02:04:03.693Z,99.99
2019-05-23T02:05:03.688Z,99.99
2019-05-23T02:06:03.673Z,99.99
2019-05-23T02:07:03.672Z,99.99
2019-05-23T02:08:03.719Z,99.99
2019-05-23T02:09:03.638Z,99.99
2019-05-23T02:10:03.632Z,99.99
2019-05-23T02:11:03.627Z,99.99
2019-05-23T02:12:03.610Z,99.99
2019-05-23T02:13:03.616Z,99.99
2019-05-23T02:14:03.592Z,99.99
2019-05-23T02:15:03.579Z,99.99
2019-05-23T02:16:03.567Z,99.99
2019-05-23T02:17:03.560Z,99.99
2019-05-23T02:18:03.561Z,99.99
2019-05-23T02:19:03.561Z,99.99
2019-05-23T02:20:03.546Z,99.99
2019-05-23T02:21:03.610Z,99.99
2019-05-23T02:22:03.510Z,99.99
2019-05-23T02:23:03.501Z,99.99
2019-05-23T02:24:03.487Z,99.99
2019-05-23T02:25:03.483Z,99.99
2019-05-23T02:26:03.473Z,99.99
2019-05-23T02:27:03.458Z,99.99
2019-05-23T02:28:03.448Z,99.99
2019-05-23T02:29:03.446Z,99.99
2019-05-23T02:30:03.435Z,99.99
2019-05-23T02:31:03.433Z,99.99
2019-05-23T02:32:03.408Z,99.99
2019-05-23T02:33:03.405Z,99.99
2019-05-23T02:34:03.389Z,99.99
2019-05-23T02:35:03.379Z,99.99
2019-05-23T02:36:03.378Z,99.99
2019-05-23T02:37:03.370Z,99.99
2019-05-23T02:38:03.355Z,99.99
2019-05-23T02:39:03.339Z,99.99
2019-05-23T02:40:03.342Z,99.99
2019-05-23T02:41:03.317Z,99.99
2019-05-23T02:42:03.309Z,99.99
2019-05-23T02:43:03.301Z,99.99
2019-05-23T02:44:03.286Z,99.99
2019-05-23T02:45:03.275Z,99.99
2019-05-23T02:46:03.266Z,99.99
2019-05-23T02:47:03.261Z,99.99
2019-05-23T02:48:03.250Z,99.99
2019-05-23T02:49:03.231Z,99.99
2019-05-23T02:50:03.227Z,99.99
2019-05-23T02:51:03.283Z,99.99
2019-05-23T02:52:03.214Z,99.99
2019-05-23T02:53:03.200Z,99.99
2019-05-23T02:54:03.182Z,99.99
2019-05-23T02:55:03.185Z,99.99
2019-05-23T02:56:03.164Z,99.99
2019-05-23T02:57:03.153Z,99.99
2019-05-23T02:58:03.148Z,99.99
2019-05-23T02:59:03.133Z,99.99
2019-05-23T03:00:03.144Z,99.99
2019-05-23T03:01:03.111Z,99.99
2019-05-23T03:02:03.098Z,99.99
2019-05-23T03:03:03.091Z,99.99
2019-05-23T03:04:03.077Z,99.99
2019-05-23T03:05:03.069Z,99.99
2019-05-23T03:06:03.058Z,99.99
2019-05-23T03:07:03.138Z,99.99
2019-05-23T03:08:03.037Z,99.99
2019-05-23T03:09:03.037Z,99.99
2019-05-23T03:10:03.019Z,99.99
2019-05-23T03:11:03.013Z,99.99
2019-05-23T03:12:02.996Z,99.99
2019-05-23T03:13:02.996Z,99.99
2019-05-23T03:14:02.973Z,99.99
2019-05-23T03:15:02.963Z,99.99
2019-05-23T03:16:02.954Z,99.99
2019-05-23T03:17:02.944Z,99.99
2019-05-23T03:18:02.937Z,99.99
2019-05-23T03:19:02.966Z,99.99
2019-05-23T03:20:02.968Z,99.99
2019-05-23T03:21:02.903Z,99.99
2019-05-23T03:22:02.887Z,99.99
2019-05-23T03:23:02.881Z,99.99
2019-05-23T03:24:02.873Z,99.99
2019-05-23T03:25:02.864Z,99.99
2019-05-23T03:26:02.851Z,99.99
2019-05-23T03:27:02.840Z,99.99
2019-05-23T03:28:02.831Z,99.99
2019-05-23T03:29:02.817Z,99.99
2019-05-23T03:30:02.826Z,99.99
2019-05-23T03:31:27.114Z,99.99
2019-05-23T03:32:02.786Z,99.99
2019-05-23T03:33:02.774Z,99.99
2019-05-23T03:34:02.781Z,99.99
2019-05-23T03:35:02.808Z,99.99
2019-05-23T03:36:02.744Z,99.99
2019-05-23T03:37:02.737Z,99.99
2019-05-23T03:38:02.727Z,99.99
2019-05-23T03:39:02.718Z,99.99
2019-05-23T03:40:02.701Z,99.99
2019-05-23T03:41:02.696Z,99.99
2019-05-23T03:42:02.681Z,99.99
2019-05-23T03:43:02.722Z,99.99
2019-05-23T03:44:02.673Z,99.99
2019-05-23T03:45:02.653Z,99.99
2019-05-23T03:46:02.638Z,99.99
2019-05-23T03:47:02.639Z,99.99
2019-05-23T03:48:02.618Z,99.99
2019-05-23T03:49:02.608Z,99.99
2019-05-23T03:50:02.596Z,99.99
2019-05-23T03:51:02.589Z,99.99
2019-05-23T03:52:02.574Z,99.99
2019-05-23T03:53:02.574Z,99.99
2019-05-23T03:54:02.580Z,99.99
2019-05-23T03:55:02.548Z,99.99
2019-05-23T03:56:02.536Z,99.99
2019-05-23T03:57:02.528Z,99.99
2019-05-23T03:58:02.519Z,99.99
2019-05-23T03:59:02.505Z,99.99
2019-05-23T04:00:02.492Z,99.99
2019-05-23T04:01:02.493Z,99.99
2019-05-23T04:02:02.468Z,99.99
2019-05-23T04:03:02.471Z,99.99
2019-05-23T04:04:02.525Z,99.99
2019-05-23T04:05:02.447Z,99.99
2019-05-23T04:06:02.429Z,99.99
2019-05-23T04:07:02.433Z,99.99
2019-05-23T04:08:02.415Z,99.99
2019-05-23T04:09:02.400Z,99.99
2019-05-23T04:10:02.385Z,99.99
2019-05-23T04:11:02.377Z,99.99
2019-05-23T04:12:02.383Z,99.99
2019-05-23T04:13:02.365Z,99.99
2019-05-23T04:14:02.345Z,99.99
2019-05-23T04:15:02.334Z,99.99
2019-05-23T04:16:02.325Z,99.99
2019-05-23T04:17:02.314Z,99.99
2019-05-23T04:18:02.314Z,99.99
2019-05-23T04:19:02.291Z,99.99
2019-05-23T04:20:02.280Z,99.99
2019-05-23T04:21:02.271Z,99.99
2019-05-23T04:22:02.260Z,99.99
2019-05-23T04:23:02.253Z,99.99
2019-05-23T04:24:02.241Z,99.99
2019-05-23T04:25:02.726Z,99.99
2019-05-23T04:26:02.223Z,99.99
2019-05-23T04:27:02.209Z,99.99
2019-05-23T04:28:02.223Z,99.99
2019-05-23T04:29:02.187Z,99.99
2019-05-23T04:30:02.215Z,99.99
2019-05-23T04:31:02.168Z,99.99
2019-05-23T04:32:07.643Z,99.99
2019-05-23T04:33:02.146Z,99.99
2019-05-23T04:34:02.137Z,99.99
2019-05-23T04:35:02.128Z,99.99
2019-05-23T04:36:02.113Z,99.99
2019-05-23T04:37:02.105Z,99.99
2019-05-23T04:38:02.096Z,99.99
2019-05-23T04:39:02.085Z,99.99
2019-05-23T04:40:02.078Z,99.99
2019-05-23T04:41:02.063Z,99.99
2019-05-23T04:42:02.071Z,99.99
2019-05-23T04:43:02.044Z,99.99
2019-05-23T04:44:02.037Z,95.46
2019-05-23T04:45:02.029Z,91.29
2019-05-23T04:46:02.040Z,86.79
2019-05-23T04:47:02.012Z,85.21
2019-05-23T04:48:02.000Z,83.38
2019-05-23T04:49:01.996Z,81.79
2019-05-23T04:50:02.009Z,79.91
2019-05-23T04:51:01.979Z,78.09
2019-05-23T04:52:01.972Z,75.92
2019-05-23T04:53:01.967Z,74.19
2019-05-23T04:54:01.963Z,73.08
2019-05-23T04:55:01.960Z,73.08
2019-05-23T04:56:01.949Z,72.02
2019-05-23T04:57:01.960Z,72.34
2019-05-23T04:58:04.710Z,71.00
2019-05-23T04:59:01.934Z,69.08
2019-05-23T05:00:02.192Z,68.54
2019-05-23T05:01:01.925Z,67.96
2019-05-23T05:02:01.930Z,67.48
2019-05-23T05:03:01.922Z,67.68
2019-05-23T05:04:01.928Z,66.36
2019-05-23T05:05:01.911Z,66.55
2019-05-23T05:06:01.904Z,65.69
2019-05-23T05:07:01.902Z,64.82
2019-05-23T05:08:01.918Z,65.78
2019-05-23T05:09:01.896Z,64.86
2019-05-23T05:10:01.892Z,65.63
2019-05-23T05:11:01.887Z,65.05
2019-05-23T05:12:01.882Z,64.08
2019-05-23T05:13:01.882Z,63.89
2019-05-23T05:14:01.872Z,65.33
2019-05-23T05:15:01.871Z,65.40
2019-05-23T05:16:01.865Z,65.56
2019-05-23T05:17:01.860Z,66.04
2019-05-23T05:18:01.857Z,67.00
2019-05-23T05:19:01.852Z,68.02
2019-05-23T05:20:02.288Z,68.95
2019-05-23T05:21:01.841Z,70.45
2019-05-23T05:22:01.837Z,70.93
2019-05-23T05:23:01.845Z,71.95
2019-05-23T05:24:01.824Z,74.16
2019-05-23T05:25:02.006Z,73.35
2019-05-23T05:26:01.820Z,74.41
2019-05-23T05:27:01.824Z,76.29
2019-05-23T05:28:01.803Z,77.25
2019-05-23T05:29:01.796Z,77.92
2019-05-23T05:30:02.238Z,79.16
2019-05-23T05:31:01.859Z,79.16
2019-05-23T05:32:03.841Z,78.97
2019-05-23T05:33:01.773Z,77.48
2019-05-23T05:34:01.770Z,78.05
2019-05-23T05:35:01.782Z,77.15
2019-05-23T05:36:01.756Z,78.59
2019-05-23T05:37:01.749Z,79.64
2019-05-23T05:38:01.747Z,79.26
2019-05-23T05:39:01.737Z,78.30
2019-05-23T05:40:01.729Z,79.26
2019-05-23T05:41:01.726Z,79.93
2019-05-23T05:42:01.720Z,80.79
2019-05-23T05:43:01.891Z,79.55
2019-05-23T05:44:01.712Z,80.03
2019-05-23T05:45:01.710Z,79.74
2019-05-23T05:46:01.693Z,80.99
2019-05-23T05:47:01.693Z,80.07
2019-05-23T05:48:01.682Z,80.22
2019-05-23T05:49:01.674Z,81.02
2019-05-23T05:50:01.668Z,81.12
2019-05-23T05:51:01.664Z,80.64
2019-05-23T05:52:01.664Z,79.97
2019-05-23T05:53:01.650Z,80.93
2019-05-23T05:54:01.645Z,80.64
2019-05-23T05:55:01.651Z,81.60
2019-05-23T05:56:01.632Z,80.83
2019-05-23T05:57:01.624Z,80.07
2019-05-23T05:58:01.620Z,80.16
2019-05-23T05:59:01.633Z,79.30
2019-05-23T06:00:01.609Z,79.53
2019-05-23T06:01:01.606Z,79.05
2019-05-23T06:02:01.627Z,79.68
2019-05-23T06:03:05.347Z,78.19
2019-05-23T06:04:01.601Z,77.95
2019-05-23T06:05:01.593Z,79.01
2019-05-23T06:06:01.569Z,79.68
2019-05-23T06:07:01.668Z,80.83
2019-05-23T06:08:01.553Z,80.55
2019-05-23T06:09:01.544Z,81.98
2019-05-23T06:10:01.540Z,81.41
2019-05-23T06:11:01.535Z,80.35
2019-05-23T06:12:01.531Z,80.30
2019-05-23T06:13:01.524Z,80.40
2019-05-23T06:14:01.517Z,80.30
2019-05-23T06:15:01.626Z,80.40
2019-05-23T06:16:01.504Z,79.34
2019-05-23T06:17:01.499Z,79.24
2019-05-23T06:18:01.490Z,79.38
2019-05-23T06:19:01.491Z,79.47
2019-05-23T06:20:01.475Z,78.90
2019-05-23T06:21:01.474Z,78.03
2019-05-23T06:22:01.467Z,77.36
2019-05-23T06:23:01.461Z,76.88
2019-05-23T06:24:01.452Z,77.84
2019-05-23T06:25:01.540Z,77.69
2019-05-23T06:26:01.497Z,76.44
2019-05-23T06:27:01.435Z,77.31
2019-05-23T06:28:01.431Z,76.92
2019-05-23T06:29:01.425Z,76.15
2019-05-23T06:30:01.417Z,75.35
2019-05-23T06:31:01.411Z,76.12
2019-05-23T06:32:01.407Z,76.50
2019-05-23T06:33:01.402Z,77.04
2019-05-23T06:34:01.397Z,77.04
2019-05-23T06:35:01.432Z,78.57
2019-05-23T06:36:01.387Z,79.72
2019-05-23T06:37:01.383Z,79.59
2019-05-23T06:38:01.386Z,80.99
2019-05-23T06:39:01.366Z,83.34
2019-05-23T06:40:01.363Z,84.15
2019-05-23T06:41:01.355Z,83.76
2019-05-23T06:42:01.347Z,83.82
2019-05-23T06:43:01.339Z,83.48
2019-05-23T06:44:01.383Z,82.81
2019-05-23T06:45:01.329Z,83.29
2019-05-23T06:46:01.320Z,83.29
2019-05-23T06:47:01.316Z,82.52
2019-05-23T06:48:01.312Z,82.42
2019-05-23T06:49:01.303Z,82.90
2019-05-23T06:50:01.296Z,83.29
2019-05-23T06:51:01.285Z,82.62
2019-05-23T06:52:01.282Z,83.86
2019-05-23T06:53:01.649Z,82.90
2019-05-23T06:54:01.266Z,82.32
2019-05-23T06:55:01.263Z,83.29
2019-05-23T06:56:01.257Z,82.90
2019-05-23T06:57:01.250Z,82.14
2019-05-23T06:58:01.241Z,82.23
2019-05-23T06:59:01.236Z,82.90
2019-05-23T07:00:01.276Z,82.62
2019-05-23T07:01:01.226Z,82.85
2019-05-23T07:02:01.217Z,82.75
2019-05-23T07:03:01.208Z,82.18
2019-05-23T07:04:01.203Z,81.79
2019-05-23T07:05:01.194Z,82.56
2019-05-23T07:06:01.190Z,81.98
2019-05-23T07:07:01.259Z,82.18
2019-05-23T07:08:01.175Z,81.89
2019-05-23T07:09:01.168Z,82.08
2019-05-23T07:10:01.303Z,82.18
2019-05-23T07:11:01.186Z,81.98
2019-05-23T07:12:01.149Z,81.60
2019-05-23T07:13:01.141Z,81.70
2019-05-23T07:14:01.132Z,81.98
2019-05-23T07:15:01.134Z,81.89
2019-05-23T07:16:01.134Z,82.08
2019-05-23T07:17:01.117Z,82.08
2019-05-23T07:18:01.113Z,81.51
2019-05-23T07:19:01.102Z,81.02
2019-05-23T07:20:01.095Z,80.93
2019-05-23T07:21:01.087Z,80.87
2019-05-23T07:22:01.092Z,81.89
2019-05-23T07:23:01.074Z,80.93
2019-05-23T07:24:01.072Z,81.16
2019-05-23T07:25:01.062Z,79.72
2019-05-23T07:26:01.063Z,79.82
2019-05-23T07:27:01.049Z,79.44
2019-05-23T07:28:01.043Z,78.00
2019-05-23T07:29:01.038Z,78.38
2019-05-23T07:30:01.031Z,78.47
2019-05-23T07:31:01.022Z,76.17
2019-05-23T07:32:01.016Z,75.89
2019-05-23T07:33:01.010Z,75.89
2019-05-23T07:34:02.623Z,75.89
2019-05-23T07:35:00.998Z,75.12
2019-05-23T07:36:01.055Z,75.21
2019-05-23T07:37:00.989Z,75.60
2019-05-23T07:38:00.977Z,76.84
2019-05-23T07:39:00.972Z,78.00
2019-05-23T07:40:00.963Z,75.70
2019-05-23T07:41:00.963Z,75.25
2019-05-23T07:42:00.952Z,74.39
2019-05-23T07:43:00.947Z,74.10
2019-05-23T07:44:00.939Z,73.43
2019-05-23T07:45:00.933Z,72.75
2019-05-23T07:46:00.923Z,70.93
2019-05-23T07:47:00.916Z,68.34
2019-05-23T07:48:00.912Z,67.29
2019-05-23T07:49:00.910Z,67.57
2019-05-23T07:50:00.900Z,68.15
2019-05-23T07:51:00.898Z,68.34
2019-05-23T07:52:00.895Z,66.23
2019-05-23T07:53:00.887Z,66.42
2019-05-23T07:54:00.885Z,66.90
2019-05-23T07:55:00.877Z,67.47
2019-05-23T07:56:00.880Z,68.34
2019-05-23T07:57:00.853Z,68.34
2019-05-23T07:58:00.852Z,67.90
2019-05-23T07:59:00.845Z,67.22
2019-05-23T08:00:00.839Z,68.18
2019-05-23T08:01:00.833Z,67.90
2019-05-23T08:02:00.825Z,67.57
2019-05-23T08:03:00.821Z,67.38
2019-05-23T08:04:17.989Z,65.94
2019-05-23T08:05:00.805Z,66.33
2019-05-23T08:06:00.801Z,66.55
2019-05-23T08:07:00.795Z,65.30
2019-05-23T08:08:00.808Z,65.49
2019-05-23T08:09:00.786Z,65.40
2019-05-23T08:10:00.782Z,62.71
2019-05-23T08:11:00.772Z,62.52
2019-05-23T08:12:00.767Z,62.61
2019-05-23T08:13:00.764Z,62.71
2019-05-23T08:14:00.751Z,62.71
2019-05-23T08:15:00.746Z,62.99
2019-05-23T08:16:00.742Z,62.26
2019-05-23T08:17:00.745Z,62.93
2019-05-23T08:18:00.730Z,62.45
2019-05-23T08:19:00.724Z,61.40
2019-05-23T08:20:00.717Z,61.78
2019-05-23T08:21:00.712Z,62.35
2019-05-23T08:22:00.707Z,60.91
2019-05-23T08:24:00.700Z,61.30
2019-05-23T08:25:00.694Z,61.40
2019-05-23T08:26:00.691Z,60.24
2019-05-23T08:27:00.721Z,58.92
2019-05-23T08:28:00.669Z,59.47
2019-05-23T08:29:24.104Z,59.76
2019-05-23T08:30:02.467Z,60.08
2019-05-23T08:31:00.655Z,60.43
2019-05-23T08:32:00.645Z,61.23
2019-05-23T08:33:00.639Z,61.23
2019-05-23T08:34:00.635Z,61.81
2019-05-23T08:35:00.646Z,59.47
2019-05-23T08:36:00.631Z,59.60
2019-05-23T08:37:00.620Z,59.38
2019-05-23T08:38:00.614Z,57.93
2019-05-23T08:39:00.609Z,58.13
2019-05-23T08:40:00.611Z,60.17
2019-05-23T08:41:00.598Z,59.31
2019-05-23T08:42:00.595Z,60.08
2019-05-23T08:43:00.586Z,59.82
2019-05-23T08:44:00.582Z,59.31
2019-05-23T08:45:00.584Z,57.03
2019-05-23T08:46:00.598Z,57.48
2019-05-23T08:47:00.565Z,56.91
2019-05-23T08:48:00.563Z,57.58
2019-05-23T08:49:00.554Z,57.39
2019-05-23T08:50:00.554Z,57.39
2019-05-23T08:51:00.543Z,56.71
2019-05-23T08:52:00.536Z,57.00
2019-05-23T08:53:00.533Z,56.14
2019-05-23T08:54:00.525Z,57.13
2019-05-23T08:55:00.521Z,56.93
2019-05-23T08:56:00.538Z,56.55
2019-05-23T08:57:00.515Z,56.26
2019-05-23T08:58:00.507Z,55.11
2019-05-23T08:59:00.499Z,54.91
2019-05-23T09:00:00.495Z,55.11
2019-05-23T09:01:00.497Z,55.37
2019-05-23T09:02:00.484Z,55.66
2019-05-23T09:03:00.487Z,55.85
2019-05-23T09:04:00.474Z,55.08
2019-05-23T09:05:05.554Z,55.85
2019-05-23T09:06:00.464Z,55.94
2019-05-23T09:07:00.457Z,55.46
2019-05-23T09:08:00.454Z,54.79
2019-05-23T09:09:00.446Z,55.85
2019-05-23T09:10:00.441Z,55.27
2019-05-23T09:11:00.436Z,55.18
2019-05-23T09:12:00.429Z,54.41
2019-05-23T09:13:00.427Z,53.83
2019-05-23T09:14:00.428Z,55.94
2019-05-23T09:15:00.427Z,54.79
2019-05-23T09:16:00.426Z,55.20
2019-05-23T09:17:00.402Z,55.08
2019-05-23T09:18:00.400Z,55.18
2019-05-23T09:19:00.394Z,55.01
2019-05-23T09:20:00.388Z,55.98
2019-05-23T09:21:00.383Z,55.20
2019-05-23T09:22:00.376Z,54.91
2019-05-23T09:23:00.371Z,54.91
2019-05-23T09:24:00.365Z,54.72
2019-05-23T09:25:00.364Z,54.63
2019-05-23T09:26:00.423Z,53.31
2019-05-23T09:27:00.350Z,52.51
2019-05-23T09:28:00.346Z,52.61
2019-05-23T09:29:00.356Z,52.99
2019-05-23T09:30:00.347Z,53.76
2019-05-23T09:31:00.331Z,55.01
2019-05-23T09:32:00.324Z,53.76
2019-05-23T09:33:00.323Z,53.76
2019-05-23T09:34:00.320Z,54.72
2019-05-23T09:35:00.370Z,53.76
2019-05-23T09:36:00.305Z,53.88
2019-05-23T09:37:00.733Z,53.47
2019-05-23T09:38:00.298Z,53.02
2019-05-23T09:39:00.341Z,53.78
2019-05-23T09:40:00.287Z,54.65
2019-05-23T09:41:00.281Z,55.23
2019-05-23T09:42:00.278Z,55.52
2019-05-23T09:43:00.271Z,54.85
2019-05-23T09:44:00.265Z,55.33
2019-05-23T09:45:00.277Z,55.33
2019-05-23T09:46:00.252Z,55.13
2019-05-23T09:47:00.250Z,56.00
2019-05-23T09:48:00.247Z,55.83
2019-05-23T09:49:00.243Z,55.45
2019-05-23T09:50:00.235Z,55.26
2019-05-23T09:51:00.239Z,55.16
2019-05-23T09:52:01.404Z,55.57
2019-05-23T09:53:00.220Z,55.57
2019-05-23T09:54:00.215Z,55.77
2019-05-23T09:55:00.213Z,56.05
2019-05-23T09:56:00.204Z,54.32
2019-05-23T09:57:00.218Z,54.32
2019-05-23T09:58:00.196Z,53.94
2019-05-23T09:59:00.193Z,55.07
2019-05-23T10:00:00.189Z,55.09
2019-05-23T10:01:00.185Z,54.68
2019-05-23T10:02:00.181Z,54.30
2019-05-23T10:03:00.171Z,54.87
2019-05-23T10:04:00.173Z,54.71
2019-05-23T10:05:00.167Z,55.38
2019-05-23T10:06:00.161Z,55.48
2019-05-23T10:07:00.157Z,56.63
2019-05-23T10:08:00.156Z,56.35
2019-05-23T10:09:00.222Z,55.67
2019-05-23T10:10:00.154Z,55.96
2019-05-23T10:11:00.142Z,53.84
2019-05-23T10:12:00.132Z,55.09
2019-05-23T10:13:00.178Z,55.87
2019-05-23T10:14:00.122Z,55.67
2019-05-23T10:15:00.126Z,56.05
2019-05-23T10:16:00.116Z,55.00
2019-05-23T10:17:00.109Z,55.00
2019-05-23T10:18:01.126Z,54.90
2019-05-23T10:19:00.102Z,55.48
2019-05-23T10:20:00.094Z,55.00
2019-05-23T10:21:00.090Z,54.80
2019-05-23T10:22:00.088Z,54.71
2019-05-23T10:23:00.087Z,54.13
2019-05-23T10:24:00.137Z,54.13
2019-05-23T10:25:00.089Z,54.42
2019-05-23T10:26:00.089Z,53.74
2019-05-23T10:27:00.065Z,54.13
2019-05-23T10:28:00.077Z,55.29
2019-05-23T10:29:00.056Z,55.00
2019-05-23T10:30:00.052Z,55.19
2019-05-23T10:31:00.047Z,55.48
2019-05-23T10:32:00.044Z,55.29
2019-05-23T10:33:00.038Z,54.93
2019-05-23T10:34:00.090Z,54.54
2019-05-23T10:35:00.045Z,53.96
2019-05-23T10:36:01.294Z,53.19
2019-05-23T10:37:00.020Z,53.00
2019-05-23T10:38:00.024Z,53.67
2019-05-23T10:39:00.014Z,54.16
2019-05-23T10:40:00.026Z,55.22
2019-05-23T10:41:00.005Z,55.41
2019-05-23T10:42:00.021Z,54.54
2019-05-23T10:42:59.996Z,54.64
2019-05-23T10:43:59.997Z,53.96
2019-05-23T10:44:59.988Z,52.33
2019-05-23T10:45:59.984Z,52.13
2019-05-23T10:46:59.982Z,53.87
2019-05-23T10:47:59.978Z,53.39
2019-05-23T10:48:59.971Z,53.19
2019-05-23T10:49:59.988Z,53.87
2019-05-23T10:50:59.965Z,53.89
2019-05-23T10:52:00.008Z,54.47
2019-05-23T10:52:59.956Z,53.61
2019-05-23T10:53:59.954Z,52.19
2019-05-23T10:54:59.973Z,52.93
2019-05-23T10:55:59.945Z,52.57
2019-05-23T10:56:59.942Z,52.19
2019-05-23T10:57:59.941Z,50.93
2019-05-23T10:58:59.934Z,51.10
2019-05-23T10:59:59.929Z,51.87
2019-05-23T11:00:59.935Z,52.52
2019-05-23T11:01:59.924Z,52.33
2019-05-23T11:02:59.916Z,52.71
2019-05-23T11:03:59.918Z,53.96
2019-05-23T11:05:11.512Z,53.58
2019-05-23T11:06:13.309Z,53.09
2019-05-23T11:06:59.909Z,53.87
2019-05-23T11:07:59.896Z,52.91
2019-05-23T11:08:59.898Z,52.61
2019-05-23T11:09:59.889Z,51.75
2019-05-23T11:10:59.888Z,51.20
2019-05-23T11:11:59.886Z,50.40
2019-05-23T11:12:59.882Z,51.10
2019-05-23T11:13:59.877Z,51.29
2019-05-23T11:14:59.874Z,49.75
2019-05-23T11:15:59.867Z,49.63
2019-05-23T11:16:59.866Z,48.79
2019-05-23T11:17:59.863Z,49.07
2019-05-23T11:18:59.854Z,48.88
2019-05-23T11:19:59.854Z,49.27
2019-05-23T11:20:59.849Z,50.16
2019-05-23T11:21:59.849Z,51.12
2019-05-23T11:23:03.469Z,50.93
2019-05-23T11:23:59.835Z,49.77
2019-05-23T11:24:59.831Z,49.19
2019-05-23T11:26:01.503Z,49.58
2019-05-23T11:26:59.830Z,49.39
2019-05-23T11:27:59.825Z,49.48
2019-05-23T11:28:59.818Z,49.58
2019-05-23T11:29:59.816Z,50.04
2019-05-23T11:30:59.817Z,50.52
2019-05-23T11:31:59.806Z,50.42
2019-05-23T11:32:59.805Z,50.06
2019-05-23T11:33:59.801Z,49.65
2019-05-23T11:34:59.801Z,48.81
2019-05-23T11:35:59.794Z,48.79
2019-05-23T11:36:59.788Z,49.87
2019-05-23T11:37:59.783Z,49.68
2019-05-23T11:38:59.784Z,49.58
2019-05-23T11:39:59.776Z,49.19
2019-05-23T11:40:59.775Z,49.39
2019-05-23T11:41:59.774Z,49.19
2019-05-23T11:42:59.767Z,48.33
2019-05-23T11:43:59.765Z,48.71
2019-05-23T11:44:59.760Z,48.03
2019-05-23T11:45:59.758Z,48.33
2019-05-23T11:46:59.752Z,47.36
2019-05-23T11:47:59.755Z,46.78
2019-05-23T11:48:59.747Z,47.75
2019-05-23T11:49:59.741Z,48.23
2019-05-23T11:50:59.742Z,48.03
2019-05-23T11:51:59.740Z,48.13
2019-05-23T11:52:59.746Z,46.97
2019-05-23T11:54:07.639Z,47.17
2019-05-23T11:54:59.724Z,48.42
2019-05-23T11:55:59.757Z,49.48
2019-05-23T11:56:59.725Z,50.06
2019-05-23T11:57:59.722Z,49.12
2019-05-23T11:59:01.505Z,48.74
2019-05-23T11:59:59.707Z,47.45
2019-05-23T12:00:59.729Z,47.27
2019-05-23T12:01:59.702Z,47.96
2019-05-23T12:02:59.698Z,46.88
2019-05-23T12:03:59.691Z,46.11
2019-05-23T12:04:59.716Z,46.40
2019-05-23T12:05:59.687Z,47.00
2019-05-23T12:06:59.684Z,46.33
2019-05-23T12:07:59.685Z,46.42
2019-05-23T12:08:59.675Z,45.07
2019-05-23T12:09:59.676Z,44.29
2019-05-23T12:10:59.674Z,44.20
2019-05-23T12:11:59.665Z,43.91
2019-05-23T12:12:59.663Z,44.59
2019-05-23T12:13:59.657Z,44.59
2019-05-23T12:14:59.657Z,44.97
2019-05-23T12:15:59.651Z,44.87
2019-05-23T12:16:59.648Z,44.59
2019-05-23T12:17:59.645Z,45.36
2019-05-23T12:18:59.641Z,44.59
2019-05-23T12:19:59.648Z,44.78
2019-05-23T12:20:59.967Z,45.07
2019-05-23T12:21:59.644Z,43.06
2019-05-23T12:22:59.640Z,43.24
2019-05-23T12:23:59.626Z,43.52
2019-05-23T12:25:18.240Z,43.62
2019-05-23T12:25:59.616Z,44.01
2019-05-23T12:26:59.618Z,44.97
2019-05-23T12:27:59.611Z,44.97
2019-05-23T12:28:59.607Z,44.78
2019-05-23T12:29:59.608Z,45.55
2019-05-23T12:30:59.601Z,45.65
2019-05-23T12:31:59.598Z,44.97
2019-05-23T12:32:59.596Z,45.26
2019-05-23T12:33:59.595Z,45.75
2019-05-23T12:35:10.433Z,46.13
2019-05-23T12:35:59.583Z,46.15
2019-05-23T12:37:17.126Z,45.36
2019-05-23T12:38:02.476Z,45.38
2019-05-23T12:38:59.576Z,45.48
2019-05-23T12:39:59.571Z,46.15
2019-05-23T12:40:59.569Z,45.76
2019-05-23T12:41:59.567Z,46.34
2019-05-23T12:42:59.561Z,45.09
2019-05-23T12:43:59.558Z,45.28
2019-05-23T12:44:59.560Z,45.00
2019-05-23T12:45:59.556Z,44.12
2019-05-23T12:46:59.557Z,43.33
2019-05-23T12:47:59.622Z,42.94
2019-05-23T12:48:59.541Z,43.43
2019-05-23T12:49:59.540Z,43.14
2019-05-23T12:50:59.542Z,42.18
2019-05-23T12:51:59.537Z,42.08
2019-05-23T12:52:59.526Z,42.27